Time;durP1;ratioP1;P1;durP2;ratioP2;P2;SDS_P1;SDS_P2;PMS_P1;PMS_P2;Temp;Humidity;BMP_temperature;BMP_pressure;BME280_temperature;BME280_humidity;BME280_pressure;Samples;Min_cycle;Max_cycle;Signal;HPM_P1;HPM_P2
2021/05/01 00:00:17;;;;;;;41.50;37.00;;;8.00;98.10;;;;;;5045680;28;20114;-39
2021/05/01 00:02:48;;;;;;;44.40;37.00;;;8.00;97.90;;;;;;5045010;28;20049;-39
2021/05/01 00:05:14;;;;;;;45.97;37.42;;;8.00;98.00;;;;;;5051832;28;20075;-39
2021/05/01 00:07:43;;;;;;;39.00;34.63;;;8.00;98.00;;;;;;5045157;28;20077;-42
2021/05/01 00:10:12;;;;;;;39.13;34.92;;;8.00;97.90;;;;;;5044788;28;20132;-41
2021/05/01 00:12:41;;;;;;;38.10;33.83;;;8.00;97.70;;;;;;5044959;28;20600;-40
2021/05/01 00:15:13;;;;;;;40.25;36.10;;;8.00;97.50;;;;;;5026823;28;20628;-39
2021/05/01 00:17:42;;;;;;;40.55;34.58;;;8.10;97.60;;;;;;5050939;28;20049;-40
2021/05/01 00:20:14;;;;;;;43.70;37.33;;;8.00;97.40;;;;;;5046056;28;20126;-40
2021/05/01 00:22:43;;;;;;;41.60;34.63;;;8.00;97.40;;;;;;5045231;28;20076;-40
2021/05/01 00:25:10;;;;;;;44.70;37.17;;;8.00;97.40;;;;;;5034737;28;20053;-39
2021/05/01 00:27:42;;;;;;;41.88;36.88;;;8.00;97.40;;;;;;5047785;28;20680;-40
2021/05/01 00:30:09;;;;;;;41.00;36.10;;;8.00;97.50;;;;;;5032343;28;20049;-39
2021/05/01 00:32:42;;;;;;;37.97;33.85;;;8.00;97.30;;;;;;5045062;28;20051;-40
2021/05/01 00:35:12;;;;;;;43.67;37.60;;;8.00;97.30;;;;;;5045439;28;20061;-40
2021/05/01 00:37:41;;;;;;;38.92;34.05;;;8.00;97.20;;;;;;5026839;28;20056;-40
2021/05/01 00:40:11;;;;;;;41.28;35.72;;;7.90;97.20;;;;;;5043671;28;20048;-40
2021/05/01 00:42:40;;;;;;;38.90;34.67;;;7.90;97.20;;;;;;5043509;28;20048;-40
2021/05/01 00:45:09;;;;;;;43.05;37.80;;;7.80;97.10;;;;;;5041829;28;20509;-40
2021/05/01 00:47:38;;;;;;;45.92;37.55;;;7.90;97.20;;;;;;5045230;28;20049;-40
2021/05/01 00:50:10;;;;;;;48.03;38.65;;;7.80;97.20;;;;;;5045221;28;20049;-40
2021/05/01 00:52:40;;;;;;;51.20;40.97;;;7.80;97.60;;;;;;5044875;28;20052;-40
2021/05/01 00:55:07;;;;;;;47.65;40.28;;;7.80;97.50;;;;;;5043754;28;20064;-40
2021/05/01 00:57:36;;;;;;;46.45;39.10;;;7.70;98.00;;;;;;5046244;28;20045;-40
2021/05/01 01:00:26;;;;;;;48.42;37.72;;;7.70;97.80;;;;;;5045948;28;20049;-40
2021/05/01 01:02:53;;;;;;;49.83;40.17;;;7.70;97.90;;;;;;5044313;28;20060;-40
2021/05/01 01:05:23;;;;;;;43.20;38.47;;;7.60;97.90;;;;;;5043207;28;20501;-40
2021/05/01 01:07:49;;;;;;;47.85;39.15;;;7.60;98.00;;;;;;5043270;28;20107;-39
2021/05/01 01:10:16;;;;;;;49.33;40.50;;;7.50;98.10;;;;;;5043456;28;20048;-40
2021/05/01 01:12:45;;;;;;;56.60;41.92;;;7.50;98.20;;;;;;5043431;28;20073;-40
2021/05/01 01:15:24;;;;;;;56.70;43.25;;;7.40;98.30;;;;;;5044753;28;20075;-40
2021/05/01 01:17:53;;;;;;;50.88;40.45;;;7.40;98.40;;;;;;5044719;28;20057;-39
2021/05/01 01:20:23;;;;;;;60.67;42.15;;;7.40;98.60;;;;;;5044906;28;20061;-39
2021/05/01 01:22:50;;;;;;;53.30;40.53;;;7.30;98.70;;;;;;5041101;28;20049;-39
2021/05/01 01:25:19;;;;;;;49.55;38.55;;;7.30;98.80;;;;;;5044138;28;20110;-39
2021/05/01 01:27:51;;;;;;;59.78;41.08;;;7.30;99.00;;;;;;5046144;28;20073;-39
2021/05/01 01:30:24;;;;;;;54.72;40.88;;;7.30;99.00;;;;;;5044879;28;20044;-40
2021/05/01 01:32:54;;;;;;;53.08;37.15;;;7.30;99.10;;;;;;5043386;28;20060;-40
2021/05/01 01:35:26;;;;;;;54.05;39.95;;;7.20;99.00;;;;;;5043704;28;20123;-39
2021/05/01 01:37:59;;;;;;;51.05;39.55;;;7.20;99.20;;;;;;5026568;28;20049;-41
2021/05/01 01:40:26;;;;;;;51.30;38.60;;;7.20;99.50;;;;;;5043425;28;20073;-39
2021/05/01 01:42:55;;;;;;;49.65;40.03;;;7.10;99.20;;;;;;5043222;28;20102;-41
2021/05/01 01:45:29;;;;;;;58.55;44.05;;;7.10;99.20;;;;;;5043775;28;20053;-41
2021/05/01 01:47:58;;;;;;;64.50;45.45;;;7.10;99.30;;;;;;5045528;28;20049;-40
2021/05/01 01:50:27;;;;;;;56.08;44.03;;;7.00;99.20;;;;;;5041508;28;20150;-39
2021/05/01 01:53:09;;;;;;;58.95;44.42;;;7.00;99.20;;;;;;5043041;28;20060;-39
2021/05/01 01:55:35;;;;;;;63.03;44.33;;;7.00;99.00;;;;;;5042435;28;20064;-40
2021/05/01 01:58:04;;;;;;;60.13;43.95;;;6.90;98.80;;;;;;5044854;28;20094;-40
2021/05/01 02:00:32;;;;;;;53.20;41.70;;;6.90;98.80;;;;;;5044082;28;20052;-40
2021/05/01 02:03:03;;;;;;;56.60;44.03;;;6.80;98.70;;;;;;5044213;28;20132;-40
2021/05/01 02:05:33;;;;;;;60.60;44.75;;;6.80;98.70;;;;;;5046483;28;20045;-40
2021/05/01 02:08:01;;;;;;;61.15;44.55;;;6.80;98.70;;;;;;5047957;28;20083;-39
2021/05/01 02:10:32;;;;;;;51.15;39.97;;;6.80;98.70;;;;;;5047603;28;20048;-41
2021/05/01 02:12:59;;;;;;;51.25;39.90;;;6.80;98.70;;;;;;5047803;28;20724;-40
2021/05/01 02:15:28;;;;;;;53.15;42.30;;;6.80;98.50;;;;;;5045311;28;20045;-40
2021/05/01 02:17:59;;;;;;;60.72;44.58;;;6.80;98.40;;;;;;5047200;28;20148;-39
2021/05/01 02:20:33;;;;;;;55.85;42.28;;;6.70;98.30;;;;;;5045868;28;20080;-40
2021/05/01 02:23:14;;;;;;;62.55;41.35;;;6.70;98.20;;;;;;5046556;28;20059;-40
2021/05/01 02:25:45;;;;;;;51.28;41.05;;;6.70;98.20;;;;;;5046655;28;20049;-40
2021/05/01 02:28:17;;;;;;;56.97;41.50;;;6.70;98.30;;;;;;5047080;28;20048;-39
2021/05/01 02:30:50;;;;;;;63.08;42.15;;;6.60;98.50;;;;;;5047206;28;20049;-39
2021/05/01 02:33:17;;;;;;;51.65;40.20;;;6.60;98.40;;;;;;5046285;28;20056;-39
2021/05/01 02:35:44;;;;;;;61.20;44.10;;;6.60;98.40;;;;;;5045197;28;20098;-40
2021/05/01 02:38:15;;;;;;;63.45;43.50;;;6.60;98.40;;;;;;5047285;28;20053;-40
2021/05/01 02:40:47;;;;;;;68.03;43.92;;;6.60;98.40;;;;;;5040681;28;20439;-39
2021/05/01 02:43:16;;;;;;;273.60;52.65;;;6.60;98.50;;;;;;5042753;28;20060;-39
2021/05/01 02:45:45;;;;;;;67.65;37.38;;;6.50;98.50;;;;;;5045804;28;20048;-39
2021/05/01 02:48:14;;;;;;;77.03;38.03;;;6.50;98.50;;;;;;5047431;28;20049;-41
2021/05/01 02:50:41;;;;;;;44.20;36.90;;;6.50;98.50;;;;;;5046411;28;20045;-41
2021/05/01 02:53:15;;;;;;;54.63;40.20;;;6.50;98.50;;;;;;5046980;28;20049;-39
2021/05/01 02:55:48;;;;;;;74.65;47.85;;;6.50;98.40;;;;;;5044233;28;20768;-39
2021/05/01 02:58:18;;;;;;;58.27;41.03;;;6.50;98.50;;;;;;5046942;28;20053;-40
2021/05/01 03:00:47;;;;;;;54.00;40.00;;;6.50;98.40;;;;;;5043863;28;20041;-40
2021/05/01 03:03:13;;;;;;;61.30;42.80;;;6.40;98.40;;;;;;5046398;28;20044;-40
2021/05/01 03:05:39;;;;;;;81.25;46.80;;;6.40;98.40;;;;;;5047493;28;20582;-40
2021/05/01 03:08:08;;;;;;;67.55;43.25;;;6.40;98.60;;;;;;5036931;28;20053;-40
2021/05/01 03:10:40;;;;;;;118.00;40.35;;;6.30;98.70;;;;;;5039327;28;20048;-40
2021/05/01 03:13:09;;;;;;;56.55;31.40;;;6.30;98.80;;;;;;5043359;28;20605;-40
2021/05/01 03:15:40;;;;;;;58.53;35.55;;;6.20;98.80;;;;;;5046886;28;20060;-40
2021/05/01 03:18:09;;;;;;;109.45;40.92;;;6.20;98.80;;;;;;5046577;28;20049;-40
2021/05/01 03:20:45;;;;;;;205.50;49.25;;;6.20;98.90;;;;;;5047539;28;20411;-41
2021/05/01 03:23:14;;;;;;;126.13;38.95;;;6.20;99.00;;;;;;5046375;28;20053;-41
2021/05/01 03:25:43;;;;;;;80.45;36.72;;;6.20;98.90;;;;;;5046516;28;20139;-41
2021/05/01 03:28:10;;;;;;;95.03;41.47;;;6.30;99.00;;;;;;5045861;28;20087;-40
2021/05/01 03:30:38;;;;;;;59.22;38.38;;;6.30;99.00;;;;;;5044952;28;20051;-40
2021/05/01 03:33:05;;;;;;;44.35;35.30;;;6.40;99.00;;;;;;5053989;28;20041;-40
2021/05/01 03:35:34;;;;;;;47.17;34.75;;;6.40;99.00;;;;;;5044663;28;20076;-40
2021/05/01 03:38:04;;;;;;;36.75;32.20;;;6.40;98.90;;;;;;5047125;28;20055;-40
2021/05/01 03:40:34;;;;;;;40.13;35.38;;;6.50;98.80;;;;;;5047476;28;20563;-40
2021/05/01 03:43:10;;;;;;;39.88;34.67;;;6.50;98.70;;;;;;5044810;28;20052;-41
2021/05/01 03:45:39;;;;;;;58.97;43.53;;;6.60;98.70;;;;;;5047224;28;20045;-40
2021/05/01 03:48:11;;;;;;;50.90;39.45;;;6.60;98.70;;;;;;5045931;28;20044;-40
2021/05/01 03:50:37;;;;;;;46.25;37.40;;;6.60;98.90;;;;;;5044152;28;20052;-40
2021/05/01 03:53:06;;;;;;;54.78;40.22;;;6.70;98.80;;;;;;5045930;28;20056;-40
2021/05/01 03:55:33;;;;;;;56.55;41.45;;;6.70;98.80;;;;;;5045655;28;20838;-40
2021/05/01 03:58:02;;;;;;;61.47;44.10;;;6.80;98.90;;;;;;5046467;28;20049;-41
2021/05/01 04:00:32;;;;;;;59.40;44.88;;;6.80;98.90;;;;;;5025855;28;20091;-40
2021/05/01 04:03:00;;;;;;;67.85;49.08;;;6.80;98.90;;;;;;5045940;28;20091;-40
2021/05/01 04:05:32;;;;;;;69.68;50.45;;;6.90;99.10;;;;;;5045445;28;20054;-40
2021/05/01 04:07:58;;;;;;;68.32;49.30;;;6.90;99.20;;;;;;5045977;28;20647;-40
2021/05/01 04:10:28;;;;;;;74.07;48.95;;;6.90;99.20;;;;;;5046653;28;20045;-41
2021/05/01 04:12:55;;;;;;;66.03;46.80;;;6.90;99.20;;;;;;5047828;28;20409;-40
2021/05/01 04:15:21;;;;;;;61.88;46.92;;;7.00;99.10;;;;;;5045957;28;20071;-40
2021/05/01 04:17:53;;;;;;;64.32;45.92;;;7.00;99.00;;;;;;5027613;28;20087;-40
2021/05/01 04:20:21;;;;;;;61.72;47.60;;;7.00;98.90;;;;;;5045989;28;20052;-40
2021/05/01 04:22:48;;;;;;;71.70;50.45;;;7.00;99.00;;;;;;5045268;28;20052;-40
2021/05/01 04:25:14;;;;;;;78.97;51.28;;;7.00;99.00;;;;;;5045685;28;20045;-41
2021/05/01 04:27:41;;;;;;;74.88;51.35;;;7.00;99.10;;;;;;5045105;28;20136;-41
2021/05/01 04:30:12;;;;;;;82.85;54.40;;;7.00;98.90;;;;;;5044253;28;20060;-41
2021/05/01 04:32:41;;;;;;;89.55;56.42;;;7.10;99.10;;;;;;5048695;28;20727;-40
2021/05/01 04:35:10;;;;;;;80.13;54.65;;;7.20;99.10;;;;;;5045179;28;20044;-39
2021/05/01 04:37:40;;;;;;;85.78;56.10;;;7.20;99.20;;;;;;5032940;28;20057;-40
2021/05/01 04:40:10;;;;;;;86.55;56.35;;;7.20;99.30;;;;;;5044471;28;20048;-39
2021/05/01 04:42:51;;;;;;;64.40;48.65;;;7.20;99.20;;;;;;5046293;28;20052;-40
2021/05/01 04:45:18;;;;;;;67.95;50.65;;;7.40;99.30;;;;;;5048285;28;20497;-39
2021/05/01 04:47:52;;;;;;;68.80;51.30;;;7.50;99.10;;;;;;5043514;28;20129;-40
2021/05/01 04:50:19;;;;;;;77.45;54.15;;;7.60;98.90;;;;;;5045861;28;20132;-40
2021/05/01 04:52:48;;;;;;;76.45;54.47;;;7.60;98.80;;;;;;5043536;28;20413;-40
2021/05/01 04:55:15;;;;;;;64.25;50.95;;;7.60;98.70;;;;;;5044753;28;20061;-41
2021/05/01 04:57:43;;;;;;;60.00;48.83;;;7.60;98.60;;;;;;5047611;28;20037;-40
2021/05/01 05:00:11;;;;;;;83.78;57.47;;;7.70;98.50;;;;;;5045084;28;20057;-40
2021/05/01 05:02:41;;;;;;;83.38;55.10;;;7.70;98.70;;;;;;5041236;28;20041;-39
2021/05/01 05:05:10;;;;;;;60.30;49.55;;;7.80;98.50;;;;;;5045962;28;20084;-40
2021/05/01 05:07:37;;;;;;;75.85;53.97;;;7.80;98.50;;;;;;5042258;28;20390;-41
2021/05/01 05:10:05;;;;;;;75.55;53.67;;;7.80;98.40;;;;;;5026783;28;20485;-41
2021/05/01 05:12:37;;;;;;;60.45;51.03;;;7.80;98.40;;;;;;5042020;28;20049;-40
2021/05/01 05:15:05;;;;;;;67.22;50.88;;;8.00;98.40;;;;;;5042226;28;20052;-40
2021/05/01 05:17:34;;;;;;;60.88;47.25;;;8.00;98.10;;;;;;5042388;28;20044;-42
2021/05/01 05:20:06;;;;;;;64.70;50.88;;;8.00;97.90;;;;;;5041946;28;20046;-42
2021/05/01 05:22:32;;;;;;;57.05;48.05;;;8.10;97.90;;;;;;5036859;28;20049;-40
2021/05/01 05:25:04;;;;;;;53.17;45.00;;;8.20;97.80;;;;;;5041230;28;20759;-40
2021/05/01 05:27:33;;;;;;;45.65;40.78;;;8.30;97.70;;;;;;5045481;28;20402;-41
2021/05/01 05:30:03;;;;;;;43.45;38.70;;;8.40;97.10;;;;;;5049876;28;20045;-41
2021/05/01 05:32:32;;;;;;;44.88;40.13;;;8.40;96.80;;;;;;5037111;28;20045;-42
2021/05/01 05:34:58;;;;;;;41.33;36.83;;;8.40;96.60;;;;;;5037896;28;20165;-40
2021/05/01 05:37:25;;;;;;;40.58;36.17;;;8.40;96.60;;;;;;5038370;28;20054;-40
2021/05/01 05:39:53;;;;;;;41.92;37.30;;;8.40;96.60;;;;;;5038461;28;20056;-39
2021/05/01 05:42:22;;;;;;;46.85;41.78;;;8.40;96.20;;;;;;5054567;28;20107;-40
2021/05/01 05:44:50;;;;;;;45.05;40.20;;;8.30;96.40;;;;;;5048985;28;20044;-39
2021/05/01 05:47:18;;;;;;;57.55;51.17;;;8.40;96.30;;;;;;5047610;28;20121;-40
2021/05/01 05:49:47;;;;;;;33.42;30.00;;;8.40;95.40;;;;;;5047783;28;20115;-39
2021/05/01 05:52:14;;;;;;;43.97;38.90;;;8.40;95.60;;;;;;5047586;28;20040;-40
2021/05/01 05:54:43;;;;;;;35.95;32.25;;;8.40;95.80;;;;;;5048484;28;20037;-40
2021/05/01 05:57:11;;;;;;;44.90;38.53;;;8.40;95.50;;;;;;5047480;28;20061;-40
2021/05/01 05:59:38;;;;;;;32.90;29.48;;;8.40;95.30;;;;;;5047712;28;20049;-39
2021/05/01 06:02:05;;;;;;;73.18;60.85;;;8.30;95.30;;;;;;5048377;28;20497;-39
2021/05/01 06:04:40;;;;;;;37.38;33.17;;;8.40;95.60;;;;;;5048362;28;20052;-39
2021/05/01 06:07:11;;;;;;;40.10;35.92;;;8.50;95.40;;;;;;5046822;28;20048;-41
2021/05/01 06:09:38;;;;;;;30.50;27.40;;;8.50;95.30;;;;;;5048600;28;20055;-40
2021/05/01 06:12:08;;;;;;;34.33;30.63;;;8.50;94.90;;;;;;5046730;28;20060;-39
2021/05/01 06:14:36;;;;;;;31.23;27.75;;;8.50;95.30;;;;;;5044744;28;20045;-42
2021/05/01 06:17:03;;;;;;;36.28;32.35;;;8.50;95.50;;;;;;5043709;28;20049;-40
2021/05/01 06:19:30;;;;;;;34.67;30.65;;;8.50;95.30;;;;;;5042017;28;20631;-40
2021/05/01 06:21:59;;;;;;;38.97;34.95;;;8.50;95.40;;;;;;5046751;28;20056;-39
2021/05/01 06:24:28;;;;;;;33.42;29.85;;;8.50;95.50;;;;;;5044825;28;20177;-40
2021/05/01 06:26:56;;;;;;;31.73;27.90;;;8.50;95.10;;;;;;5044065;28;20074;-39
2021/05/01 06:29:26;;;;;;;41.67;36.08;;;8.40;94.90;;;;;;5046104;28;20370;-39
2021/05/01 06:32:01;;;;;;;173.95;155.15;;;8.40;95.20;;;;;;5041509;28;20583;-41
2021/05/01 06:34:35;;;;;;;37.33;33.20;;;8.50;95.30;;;;;;5046559;28;20072;-41
2021/05/01 06:37:02;;;;;;;41.40;36.50;;;8.50;95.30;;;;;;5043264;28;20051;-40
2021/05/01 06:39:33;;;;;;;33.30;29.60;;;8.50;95.30;;;;;;5042511;28;20057;-40
2021/05/01 06:42:05;;;;;;;35.08;31.17;;;8.50;95.60;;;;;;5027246;28;20048;-42
2021/05/01 06:44:49;;;;;;;38.97;31.13;;;8.60;95.80;;;;;;5046050;28;20235;-40
2021/05/01 06:47:17;;;;;;;38.50;34.35;;;8.60;95.60;;;;;;5028389;28;20521;-41
2021/05/01 06:50:09;;;;;;;33.75;30.27;;;8.60;95.50;;;;;;5045747;28;20071;-38
2021/05/01 06:52:46;;;;;;;30.50;27.30;;;8.60;95.50;;;;;;4965840;28;20169;-42
2021/05/01 06:55:15;;;;;;;32.15;27.50;;;8.60;95.50;;;;;;4965113;28;20127;-40
2021/05/01 06:57:48;;;;;;;34.10;28.77;;;8.70;95.30;;;;;;4965726;28;20121;-42
2021/05/01 07:00:16;;;;;;;32.70;28.05;;;8.70;95.30;;;;;;4967504;28;20050;-41
2021/05/01 07:02:47;;;;;;;36.75;28.20;;;8.80;95.40;;;;;;4971169;28;20102;-38
2021/05/01 07:05:34;;;;;;;34.30;28.45;;;8.90;95.60;;;;;;4956474;28;20090;-39
2021/05/01 07:08:04;;;;;;;69.50;57.72;;;9.10;95.50;;;;;;4975210;28;20071;-40
2021/05/01 07:10:36;;;;;;;74.70;59.42;;;9.50;95.50;;;;;;4966176;28;20178;-40
2021/05/01 07:13:14;;;;;;;;;;;9.60;95.20;;;;;;4967901;28;20117;-40
2021/05/01 07:15:41;;;;;;;30.05;23.83;;;9.60;94.20;;;;;;4964692;28;19939;-40
2021/05/01 07:18:22;;;;;;;28.48;24.60;;;9.50;94.10;;;;;;4967111;28;20058;-42
2021/05/01 07:20:52;;;;;;;33.42;24.95;;;9.30;93.90;;;;;;4972933;28;20066;-41
2021/05/01 07:23:21;;;;;;;22.58;20.15;;;9.20;94.10;;;;;;4964013;28;20574;-43
2021/05/01 07:25:50;;;;;;;28.65;22.63;;;9.20;94.40;;;;;;4967517;28;20042;-43
2021/05/01 07:28:30;;;;;;;23.98;20.60;;;9.00;94.40;;;;;;4964546;28;20519;-42
2021/05/01 07:31:22;;;;;;;25.40;22.58;;;9.00;94.50;;;;;;5045811;28;20481;-40
2021/05/01 07:33:53;;;;;;;26.02;21.15;;;9.00;94.90;;;;;;5042191;28;20460;-40
2021/05/01 07:36:29;;;;;;;27.80;21.23;;;9.10;94.80;;;;;;5042970;28;20052;-41
2021/05/01 07:38:59;;;;;;;22.27;19.75;;;9.20;94.90;;;;;;5046529;28;20161;-39
2021/05/01 07:41:29;;;;;;;47.47;39.63;;;9.20;94.10;;;;;;5044724;28;20048;-39
2021/05/01 07:43:59;;;;;;;25.85;19.33;;;9.20;94.20;;;;;;5048418;28;20143;-40
2021/05/01 07:46:28;;;;;;;46.75;36.75;;;9.10;93.50;;;;;;5043996;28;20404;-39
2021/05/01 07:48:58;;;;;;;25.10;21.52;;;9.30;94.00;;;;;;5046816;28;20055;-38
2021/05/01 07:51:27;;;;;;;26.80;20.40;;;9.30;93.30;;;;;;5047145;28;20048;-41
2021/05/01 07:53:55;;;;;;;26.38;18.42;;;9.50;92.80;;;;;;5045174;28;20045;-39
2021/05/01 07:56:27;;;;;;;27.77;21.83;;;9.70;92.30;;;;;;5042787;28;20570;-40
2021/05/01 07:59:01;;;;;;;22.42;17.85;;;10.10;91.70;;;;;;5046361;28;20817;-40
2021/05/01 08:01:31;;;;;;;22.58;16.15;;;10.30;92.10;;;;;;5046873;28;20761;-40
2021/05/01 08:03:57;;;;;;;17.60;15.68;;;10.20;90.80;;;;;;5044169;28;20056;-40
2021/05/01 08:06:27;;;;;;;17.05;15.00;;;10.30;90.60;;;;;;5047785;28;20485;-40
2021/05/01 08:08:55;;;;;;;79.53;68.80;;;10.50;90.30;;;;;;5046462;28;20044;-40
2021/05/01 08:11:24;;;;;;;28.67;24.55;;;10.20;87.60;;;;;;5045872;28;20056;-39
2021/05/01 08:13:51;;;;;;;31.85;28.33;;;10.20;87.40;;;;;;5045950;28;20504;-39
2021/05/01 08:16:23;;;;;;;17.00;13.90;;;10.30;87.60;;;;;;5045297;28;20500;-40
2021/05/01 08:19:01;;;;;;;19.48;14.38;;;10.70;88.40;;;;;;5042266;28;20056;-39
2021/05/01 08:21:30;;;;;;;20.35;15.57;;;10.80;84.90;;;;;;5041116;28;20049;-41
2021/05/01 08:24:00;;;;;;;14.63;11.25;;;11.80;86.40;;;;;;5046426;28;20676;-38
2021/05/01 08:26:29;;;;;;;18.55;13.43;;;11.90;81.30;;;;;;5047372;28;20041;-41
2021/05/01 08:28:59;;;;;;;13.23;11.10;;;11.80;80.30;;;;;;5045773;28;20493;-39
2021/05/01 08:31:28;;;;;;;13.00;11.63;;;11.90;80.20;;;;;;5042400;28;20082;-39
2021/05/01 08:34:02;;;;;;;15.52;13.20;;;11.80;79.80;;;;;;5046198;28;20079;-40
2021/05/01 08:36:31;;;;;;;12.15;10.82;;;12.00;80.10;;;;;;5046989;28;20088;-39
2021/05/01 08:39:03;;;;;;;10.73;9.25;;;12.60;79.70;;;;;;5046481;28;20056;-42
2021/05/01 08:41:32;;;;;;;15.70;13.90;;;12.50;78.00;;;;;;5045519;28;20130;-42
2021/05/01 08:44:05;;;;;;;11.88;9.98;;;12.90;78.80;;;;;;5046091;28;20072;-42
2021/05/01 08:46:41;;;;;;;11.15;9.15;;;13.40;75.30;;;;;;5046070;28;20049;-40
2021/05/01 08:49:09;;;;;;;11.30;9.23;;;13.70;73.50;;;;;;5028899;28;20076;-39
2021/05/01 08:51:41;;;;;;;11.40;9.35;;;13.20;71.60;;;;;;5045960;28;20103;-40
2021/05/01 08:54:15;;;;;;;12.50;10.15;;;13.30;71.50;;;;;;5050648;28;20049;-39
2021/05/01 08:56:44;;;;;;;11.75;9.10;;;13.90;72.30;;;;;;5042897;28;20065;-40
2021/05/01 08:59:11;;;;;;;9.60;8.50;;;13.40;74.20;;;;;;5047671;28;20128;-44
2021/05/01 09:01:40;;;;;;;10.32;9.15;;;13.60;74.40;;;;;;5045293;28;20497;-40
2021/05/01 09:04:10;;;;;;;12.05;8.73;;;14.40;73.50;;;;;;5046411;28;20559;-40
2021/05/01 09:06:38;;;;;;;10.20;8.50;;;14.50;63.90;;;;;;5045774;28;20147;-41
2021/05/01 09:09:10;;;;;;;9.68;8.25;;;14.20;68.70;;;;;;5051286;28;20083;-41
2021/05/01 09:11:45;;;;;;;10.65;8.50;;;13.60;64.80;;;;;;5039258;28;20048;-43
2021/05/01 09:14:26;;;;;;;11.15;8.40;;;13.30;66.60;;;;;;5040718;28;20055;-43
2021/05/01 09:17:06;;;;;;;14.20;12.70;;;13.10;69.00;;;;;;5040494;28;20072;-41
2021/05/01 09:19:44;;;;;;;11.18;9.90;;;13.30;67.50;;;;;;5045038;28;20052;-43
2021/05/01 09:22:17;;;;;;;15.02;13.13;;;13.70;67.30;;;;;;5046619;28;20052;-42
2021/05/01 09:24:46;;;;;;;9.60;8.27;;;13.50;67.00;;;;;;5045463;28;20044;-44
2021/05/01 09:27:18;;;;;;;13.30;8.85;;;13.00;67.10;;;;;;5042589;28;20512;-45
2021/05/01 09:29:49;;;;;;;13.35;11.43;;;12.50;69.60;;;;;;5048440;28;20096;-46
2021/05/01 09:32:24;;;;;;;15.43;11.95;;;12.20;70.00;;;;;;5042909;28;20053;-42
2021/05/01 09:34:57;;;;;;;10.15;8.65;;;12.10;69.90;;;;;;5044191;28;20049;-44
2021/05/01 09:37:26;;;;;;;15.27;10.93;;;11.90;69.90;;;;;;5016808;28;20493;-43
2021/05/01 09:40:01;;;;;;;11.48;8.32;;;12.00;71.60;;;;;;5039793;28;20056;-42
2021/05/01 09:42:30;;;;;;;9.98;8.95;;;11.90;70.70;;;;;;5041600;28;20131;-44
2021/05/01 09:45:18;;;;;;;10.75;9.05;;;12.10;68.60;;;;;;5028195;28;20080;-46
2021/05/01 09:47:50;;;;;;;10.70;9.45;;;12.20;68.60;;;;;;5042824;28;20049;-44
2021/05/01 09:50:24;;;;;;;11.35;9.57;;;12.10;68.10;;;;;;5046839;28;20056;-44
2021/05/01 09:53:14;;;;;;;14.35;10.45;;;11.90;69.10;;;;;;5048349;28;20497;-43
2021/05/01 09:55:53;;;;;;;24.73;21.52;;;12.00;70.60;;;;;;5021318;28;20065;-44
2021/05/01 09:58:28;;;;;;;17.00;14.38;;;11.90;70.60;;;;;;5032998;28;20068;-44
2021/05/01 10:01:17;;;;;;;15.05;12.00;;;12.20;69.90;;;;;;5020545;28;20123;-42
2021/05/01 10:03:43;;;;;;;12.57;11.27;;;12.50;67.50;;;;;;5024210;28;20045;-43
2021/05/01 10:06:14;;;;;;;10.50;9.00;;;12.50;67.50;;;;;;5025502;28;20421;-44
2021/05/01 10:08:52;;;;;;;10.32;8.60;;;13.30;63.90;;;;;;5017350;28;20080;-44
2021/05/01 10:11:27;;;;;;;10.38;9.27;;;13.00;62.90;;;;;;5018046;28;20058;-43
2021/05/01 10:13:59;;;;;;;10.40;8.23;;;12.90;64.20;;;;;;5011206;28;20050;-45
2021/05/01 10:16:25;;;;;;;8.60;7.70;;;12.90;63.00;;;;;;5022354;28;20167;-46
2021/05/01 10:19:12;;;;;;;9.77;7.82;;;13.60;61.70;;;;;;5025712;28;20054;-44
2021/05/01 10:21:44;;;;;;;8.80;7.75;;;13.40;60.80;;;;;;5016825;28;20045;-45
2021/05/01 10:24:14;;;;;;;8.90;8.00;;;13.20;61.80;;;;;;5024939;28;20041;-46
2021/05/01 10:26:48;;;;;;;9.02;8.07;;;13.10;63.50;;;;;;5024845;28;21350;-43
2021/05/01 10:29:38;;;;;;;;;;;13.40;64.40;;;;;;5029502;28;20421;-43
2021/05/01 10:32:18;;;;;;;13.90;12.50;;;14.00;61.40;;;;;;5024463;28;20342;-44
2021/05/01 10:34:47;;;;;;;11.18;10.02;;;14.60;59.60;;;;;;5027467;28;20081;-44
2021/05/01 10:37:16;;;;;;;12.02;9.80;;;14.90;62.90;;;;;;5028265;28;20057;-46
2021/05/01 10:39:46;;;;;;;13.57;8.85;;;14.00;60.80;;;;;;5028346;28;20057;-46
2021/05/01 10:42:19;;;;;;;11.13;9.30;;;13.40;64.10;;;;;;5026477;28;20052;-50
2021/05/01 10:44:59;;;;;;;10.10;8.52;;;13.00;65.90;;;;;;5024535;28;20046;-46
2021/05/01 10:47:29;;;;;;;10.60;7.57;;;12.90;66.20;;;;;;5028051;28;20057;-45
2021/05/01 10:50:01;;;;;;;9.30;7.90;;;12.60;62.70;;;;;;5023598;28;20049;-45
2021/05/01 10:52:29;;;;;;;9.23;7.70;;;12.50;64.20;;;;;;5025850;28;20517;-47
2021/05/01 10:55:03;;;;;;;8.80;7.90;;;12.50;63.60;;;;;;5015992;28;20164;-46
2021/05/01 10:57:36;;;;;;;7.43;6.38;;;12.60;59.90;;;;;;5027610;28;20057;-45
2021/05/01 11:00:12;;;;;;;7.20;6.50;;;12.70;61.50;;;;;;5052301;28;20056;-45
2021/05/01 11:02:40;;;;;;;9.38;7.18;;;13.00;61.70;;;;;;5036311;28;20046;-43
2021/05/01 11:05:17;;;;;;;9.55;7.03;;;13.80;59.50;;;;;;5038056;28;20156;-48
2021/05/01 11:07:59;;;;;;;8.43;6.30;;;14.80;57.10;;;;;;5044366;28;20059;-46
2021/05/01 11:10:33;;;;;;;6.68;5.97;;;15.20;56.60;;;;;;5033234;28;20555;-47
2021/05/01 11:13:04;;;;;;;8.50;6.65;;;14.40;55.40;;;;;;5042033;28;20049;-47
2021/05/01 11:15:45;;;;;;;6.57;5.72;;;13.90;55.20;;;;;;5045393;28;20151;-46
2021/05/01 11:18:20;;;;;;;6.13;5.45;;;13.90;54.30;;;;;;5035420;28;20053;-45
2021/05/01 11:20:53;;;;;;;6.18;5.53;;;15.00;52.30;;;;;;5031403;28;20050;-46
2021/05/01 11:23:28;;;;;;;7.07;5.53;;;15.90;54.50;;;;;;5046238;28;20045;-46
2021/05/01 11:25:59;;;;;;;8.02;6.80;;;15.90;51.70;;;;;;5038498;28;20386;-46
2021/05/01 11:28:28;;;;;;;10.25;8.73;;;14.80;57.00;;;;;;5034918;28;20128;-48
2021/05/01 11:30:57;;;;;;;9.48;8.52;;;14.50;60.20;;;;;;5028043;28;20128;-46
2021/05/01 11:33:24;;;;;;;15.98;11.98;;;14.10;59.00;;;;;;5038417;28;20188;-48
2021/05/01 11:35:54;;;;;;;16.48;13.82;;;14.00;59.50;;;;;;5041879;28;20046;-45
2021/05/01 11:38:32;;;;;;;14.10;12.60;;;13.80;60.90;;;;;;5036981;28;20056;-45
2021/05/01 11:41:02;;;;;;;14.77;13.30;;;13.80;62.30;;;;;;5041176;28;20063;-48
2021/05/01 11:43:31;;;;;;;16.83;14.38;;;14.50;62.40;;;;;;5037985;28;20054;-47
2021/05/01 11:46:10;;;;;;;15.07;11.93;;;15.40;58.60;;;;;;5043450;28;20063;-45
2021/05/01 11:48:49;;;;;;;13.27;11.88;;;15.60;59.00;;;;;;5043458;28;20485;-46
2021/05/01 11:51:29;;;;;;;12.43;10.50;;;16.10;56.40;;;;;;5031279;28;20045;-49
2021/05/01 11:54:14;;;;;;;10.98;9.85;;;16.60;55.60;;;;;;5045621;28;20060;-46
2021/05/01 11:56:59;;;;;;;8.95;7.90;;;16.70;53.00;;;;;;5035468;28;20067;-47
2021/05/01 11:59:27;;;;;;;7.32;6.35;;;16.70;53.90;;;;;;5034087;28;20622;-49
2021/05/01 12:02:03;;;;;;;8.25;5.60;;;17.10;53.40;;;;;;5034788;28;20099;-45
2021/05/01 12:05:10;;;;;;;5.90;5.20;;;16.80;48.60;;;;;;5027487;28;20057;-47
2021/05/01 12:07:36;;;;;;;7.50;5.05;;;16.60;44.50;;;;;;5036032;28;20533;-51
2021/05/01 12:10:12;;;;;;;5.50;3.97;;;16.80;50.20;;;;;;5037786;28;20045;-50
2021/05/01 12:12:42;;;;;;;6.60;5.38;;;17.40;48.30;;;;;;5051178;28;20037;-47
2021/05/01 12:15:13;;;;;;;5.95;4.85;;;17.50;49.70;;;;;;5045339;28;20792;-44
2021/05/01 12:17:48;;;;;;;;;;;17.20;51.20;;;;;;5043544;28;20060;-48
2021/05/01 12:20:17;;;;;;;5.70;5.10;;;16.60;48.50;;;;;;5042892;28;20444;-47
2021/05/01 12:22:52;;;;;;;4.93;4.05;;;16.10;53.40;;;;;;5045272;28;20053;-46
2021/05/01 12:25:34;;;;;;;16.50;11.30;;;15.80;52.00;;;;;;5030270;28;20382;-46
2021/05/01 12:28:01;;;;;;;9.38;8.25;;;15.10;50.50;;;;;;5034263;28;20134;-46
2021/05/01 12:30:39;;;;;;;6.18;4.43;;;14.90;53.30;;;;;;5042539;28;20447;-45
2021/05/01 12:33:31;;;;;;;11.98;4.63;;;14.30;55.00;;;;;;5044064;28;20489;-44
2021/05/01 12:36:03;;;;;;;7.82;4.75;;;14.20;57.70;;;;;;5045714;28;20072;-45
2021/05/01 12:38:31;;;;;;;5.63;4.95;;;14.00;59.30;;;;;;5042684;28;20274;-46
2021/05/01 12:41:09;;;;;;;7.15;5.15;;;14.00;59.80;;;;;;5046898;28;20068;-45
2021/05/01 12:43:39;;;;;;;5.53;4.80;;;14.10;57.70;;;;;;5046569;28;20049;-45
2021/05/01 12:46:32;;;;;;;5.10;4.53;;;13.90;58.40;;;;;;5046557;28;20064;-48
2021/05/01 12:49:00;;;;;;;5.88;4.70;;;13.90;58.60;;;;;;5044322;28;20055;-44
2021/05/01 12:51:34;;;;;;;7.10;4.50;;;13.80;58.10;;;;;;5047156;28;20501;-45
2021/05/01 12:54:21;;;;;;;5.07;4.35;;;13.60;57.10;;;;;;5048908;28;20106;-44
2021/05/01 12:56:54;;;;;;;6.18;4.00;;;13.60;59.00;;;;;;5032957;28;20072;-44
2021/05/01 12:59:31;;;;;;;6.60;4.88;;;13.80;57.90;;;;;;5045424;28;20825;-46